Tiempo atmosférico en la estación meteorológica de Tazacorte, Santa Cruz de Tenerife (30 m.)



Fecha
DESCASC
Temp. máxima en grados centígrados (hora)
DESCASC
Temp. mínima en grados centígrados (hora)
DESCASC
Temp. media en grados centígrados
DESCASC
Racha de viento máxima en m/sg (hora)
DESCASC
Velocidad máxima media en intervalos de 10 minutos(hora)
DESCASC
Precipitaciones diarias en mm
DESCASC
Precipitaciones de 00:00 a 06:00 en mm
DESCASC
Precipitaciones de 06:00 a 12:00 en mm
DESCASC
Precipitaciones de 12:00 a 18:00 en mm
DESCASC
Precipitaciones de 18:00 a 24:00 en mm
DESCASC
17-10-2019 24.7 (15:50) 19 (07:40) 21.9 4.44 (15:50) 2.22 (15:20) 0 0 0 0 0
16-10-2019 25.1 (15:20) 18.9 (07:00) 22 4.17 (12:50) 2.78 (06:30) 0 0 0 0 0
15-10-2019 25 (16:30) 19 (05:40) 22 4.17 (07:10) 2.5 (03:40) 0 0 0 0 0
14-10-2019 26.2 (16:00) 19.8 (05:40) 23 4.44 (14:40) 2.22 (15:20) 0 0 0 0 0
13-10-2019 25.4 (16:30) 19.2 (00:00) 22.3 4.44 (13:40) 3.06 (09:10) 0 0 0 0 0
12-10-2019 26.1 (15:50) 20.4 (00:00) 23.3 3.89 (17:00) 1.94 (09:00) 0 0 0 0 0
10-10-2019 25.3 (13:40) 19.8 (00:00) 22.5 6.11 (04:20) 3.33 (04:20) 0 0 0 0 0
09-10-2019 26.3 (15:10) 19.7 (00:00) 23 6.94 (17:10) 3.89 (17:00) 0 0 0 0 0
08-10-2019 26.6 (16:20) 19.6 (00:00) 23.1 5 (16:40) 3.06 (17:30) 0 0 0 0 0
07-10-2019 27.7 (16:10) 19.9 (00:00) 23.8 7.5 (06:00) 4.17 (05:10) 0 0 0 0 0
06-10-2019 26.9 (16:20) 20.8 (00:00) 23.8 8.33 (17:10) 4.44 (17:00) 0 0 0 0 0
05-10-2019 27.6 (15:50) 20.8 (06:20) 24.2 11.39 (18:20) 6.67 (18:10) 0 0 0 0 0
04-10-2019 26.6 (15:50) 20.8 (00:00) 23.7 8.06 (14:00) 4.72 (13:30) 0 0 0 0 0
03-10-2019 27.9 (16:00) 19.9 (00:00) 23.9 3.61 (13:30) 1.67 (14:20) 0 0 0 0 0
02-10-2019 28.1 (15:20) 20.6 (00:00) 24.4 3.89 (17:50) 2.22 (17:10) 0 0 0 0 0
01-10-2019 28.3 (15:40) 20.5 (00:00) 24.4 3.61 (03:00) 2.22 (03:00) 0 0 0 0 0
30-09-2019 27.8 (16:20) 20.3 (00:00) 24 3.89 (15:30) 1.94 (02:30) 0 0 0 0 0
29-09-2019 26.7 (17:00) 20.4 (00:00) 23.6 5.56 (14:50) 3.33 (14:50) 0 0 0 0 0
28-09-2019 26.3 (13:30) 20 (00:00) 23.1 3.89 (09:00) 3.06 (09:00) 0 0 0 0 0
27-09-2019 27.7 (17:00) 20.9 (00:00) 24.3 4.17 (15:30) 2.22 (15:00) 0 0 0 0 0
26-09-2019 28.4 (15:50) 21 (00:00) 24.7 9.17 (02:40) 4.72 (02:50) 0 0 0 0 0
25-09-2019 28.2 (15:40) 20.1 (00:00) 24.2 9.44 (22:30) 5.83 (22:30) 0 0 0 0 0
24-09-2019 28.1 (14:10) 20.7 (00:00) 24.4 4.44 (13:40) 2.5 (14:10) 0 0 0 0 0
23-09-2019 28 (14:50) 22.3 (00:00) 25.1 4.44 (17:00) 2.22 (08:30) 0 0 0 0 0
22-09-2019 29.3 (16:20) 21.3 (00:00) 25.3 4.17 (16:50) 2.22 (16:20) 0 0 0 0 0
21-09-2019 26.9 (16:20) 20.3 (00:00) 23.6 4.72 (14:30) 2.5 (17:00) 0 0 0 0 0
20-09-2019 28.4 (16:20) 20.5 (00:00) 24.4 5 (21:20) 3.06 (21:40) 0 0 0 0 0
19-09-2019 28 (15:30) 20.6 (00:00) 24.3 6.11 (13:20) 3.61 (13:40) 0 0 0 0 0

Gráficas

Temp. máximas Temp. mínimas Temp. medias Precipitaciones Rachas de viento máximas Velocidades máximas media en intervalos de 10 minutos

Datos horarios

Fecha y hora oficial Temperatura (ºC) Velocidad del viento (km/h) Dirección del viento Racha (km/h) Dirección de racha Precipitación (mm) Presión (hPa) Tendencia (hPa) Humedad (%)
2019-10-18 23:00:00 19.9 6 Este 10 Este 0 1012.2 1 71
2019-10-18 22:00:00 20.1 5 Este 9 Este 0 1012 1.1 71
2019-10-18 21:00:00 20.6 0 Calma 3 Norte 0 1011.5 0.3 74
2019-10-18 20:00:00 21.2 0 Calma 8 Sudoeste 0 1011.2 -0.4 71
2019-10-18 19:00:00 22.5 4 Sudoeste 12 Sur 0 1010.9 -0.7 66
2019-10-18 18:00:00 23.2 7 Sur 13 Sur 0 1011.2 -1 64
2019-10-18 17:00:00 24.1 5 Sur 12 Sur 0 1011.6 -1.4 63
2019-10-18 16:00:00 23.9 3 Sudoeste 11 Sur 0 1011.6 -2.4 63
2019-10-18 15:00:00 23.7 4 Sudoeste 10 Sudoeste 0 1012.2 -2.2 67
2019-10-18 14:00:00 23.6 4 Oeste 11 Oeste 0 1013 -1.4 65
2019-10-18 13:00:00 23.7 5 Sudoeste 11 Sudoeste 0 1014 0.2 65
2019-10-18 12:00:00 22.6 5 Sudoeste 10 Sudoeste 0 1014.4 1.4 67
2019-10-18 11:00:00 21.6 5 Oeste 10 Oeste 0 1014.4 1.6 68
2019-10-18 10:00:00 20.5 4 Este 12 Este 0 1013.8 0.9 71
2019-10-18 09:00:00 18.9 10 Este 15 Este 0 1013 0.3 73
2019-10-18 08:00:00 18.4 10 Este 14 Este 0 1012.8 0 74
2019-10-18 07:00:00 18.5 10 Este 14 Este 0 1012.9 -0.2 74
2019-10-18 06:00:00 18.6 9 Este 14 Este 0 1012.7 -0.6 72
2019-10-18 05:00:00 18.9 9 Este 13 Este 0 1012.8 -1.2 71
2019-10-18 04:00:00 19.1 7 Este 14 Este 0 1013.1 -1.1 71
2019-10-18 03:00:00 19.3 8 Este 13 Este 0 1013.3 -1.3 73
2019-10-18 02:00:00 19.6 6 Este 10 Este 0 1014 -0.3 73
2019-10-18 01:00:00 19.6 7 Este 11 Este 0 1014.2 0.1 72
2019-10-18 00:00:00 20.1 5 Este 9 Este 0 1014.6 1 76
2019-10-17 23:00:00 20.6 0 Calma 6 Nordeste 0 1014.3 1.4 75
2019-10-17 22:00:00 21 0 Calma 3 Norte 0 1014.1 1.5 74
2019-10-17 21:00:00 21.6 0 Calma 5 Noroeste 0 1013.6 1.1 71
2019-10-17 20:00:00 21.9 3 Noroeste 9 Noroeste 0 1012.9 0.2 70
2019-10-17 19:00:00 22.3 5 Noroeste 14 Oeste 0 1012.6 -0.3 69
2019-10-17 18:00:00 23.1 7 Noroeste 14 Oeste 0 1012.5 -0.7 67
2019-10-17 17:00:00 23.4 6 Noroeste 13 Noroeste 0 1012.7 -1.3 66
2019-10-17 16:00:00 24.5 8 Noroeste 16 Noroeste 0 1012.9 -1.4 65
2019-10-17 15:00:00 23.6 6 Noroeste 15 Noroeste 0 1013.2 -1.4 68
2019-10-17 14:00:00 23.5 5 Noroeste 13 Oeste 0 1014 -0.1 67
2019-10-17 13:00:00 23.2 5 Sudoeste 12 Sudoeste 0 1014.3 0.4 71
2019-10-17 12:00:00 22.5 6 Sudoeste 10 Oeste 0 1014.6 1 74
2019-10-17 11:00:00 21.7 4 Sur 8 Sudoeste 0 1014.1 0.9 82
2019-10-17 10:00:00 20.6 3 Sudeste 9 Este 0 1013.9 1.1 73
2019-10-17 09:00:00 19.4 6 Este 10 Este 0 1013.6 0.9 71
2019-10-17 08:00:00 19.2 6 Este 10 Este 0 1013.2 0.3 73
2019-10-17 07:00:00 19.3 7 Este 9 Este 0 1012.8 -0.3 78
2019-10-17 06:00:00 19.5 6 Este 10 Este 0 1012.7 -0.8 74
2019-10-17 05:00:00 19.6 6 Este 10 Este 0 1012.9 -0.8 72
2019-10-17 04:00:00 19.8 6 Este 10 Este 0 1013.1 -1 71
2019-10-17 03:00:00 20 5 Este 10 Este 0 1013.5 -0.9 72
2019-10-17 02:00:00 20.1 5 Este 10 Este 0 1013.7 -1 72
2019-10-17 01:00:00 20.2 4 Este 10 Este 0 1014.1 0 73
2019-10-17 00:00:00 21 0 Calma 4 Este 0 1014.4 1.1 74
2019-10-16 23:00:00 20.9 2 Sudeste 5 Sudeste 0 1014.7 1.8 75
2019-10-16 22:00:00 20.9 0 Calma -- -- 0 1014.1 1.7 74
2019-10-16 21:00:00 21.2 0 Calma 3 Noroeste 0 1013.3 0.8 72
2019-10-16 20:00:00 21.8 0 Calma 6 Oeste 0 1012.9 0.2 71
2019-10-16 19:00:00 22.3 3 Noroeste 10 Noroeste 0 1012.4 -0.3 67
2019-10-16 18:00:00 23.1 5 Noroeste 13 Oeste 0 1012.5 -0.6 66
2019-10-16 17:00:00 24 4 Sudoeste 10 Sudoeste 0 1012.7 -0.6 62
2019-10-16 16:00:00 24.8 6 Sudoeste 11 Sudoeste 0 1012.7 -1.5 59
2019-10-16 15:00:00 24.9 5 Oeste 13 Noroeste 0 1013.1 -1.3 58
2019-10-16 14:00:00 23.9 6 Noroeste 15 Oeste 0 1013.3 -1.2 61
2019-10-16 13:00:00 23.7 6 Noroeste 15 Noroeste 0 1014.2 0.2 62
2019-10-16 12:00:00 22.6 6 Noroeste 13 Oeste 0 1014.4 1.4 64
2019-10-16 11:00:00 22 4 Oeste 8 Oeste 0 1014.5 1.7 65
2019-10-16 10:00:00 20.4 0 Calma 10 Este 0 1014 1.5 63
2019-10-16 09:00:00 19.2 7 Este 12 Este 0 1013 0.6 63
2019-10-16 08:00:00 18.9 8 Este 12 Este 0 1012.8 0.4 64
2019-10-16 07:00:00 19 8 Este 14 Este 0 1012.5 -0.5 64
2019-10-16 06:00:00 19.2 8 Este 15 Este 0 1012.4 -1 64
2019-10-16 05:00:00 19.2 9 Este 14 Este 0 1012.4 -1.2 65
2019-10-16 04:00:00 19.4 7 Este 12 Este 0 1013 -0.8 66
2019-10-16 03:00:00 19.8 3 Este 13 Este 0 1013.4 -0.6 65
2019-10-16 02:00:00 19.8 8 Este 11 Este 0 1013.6 -0.2 64
2019-10-16 01:00:00 20.1 4 Este 12 Este 0 1013.8 0.2 63
2019-10-16 00:00:00 20 6 Este 12 Este 0 1014 1.2 67
2019-10-15 23:00:00 20.3 5 Nordeste 9 Nordeste 0 1013.8 1.4 72
2019-10-15 22:00:00 20.4 0 Calma 3 Sur 0 1013.6 1.5 74
2019-10-15 21:00:00 20.9 0 Calma 9 Sur 0 1012.8 0.4 72
2019-10-15 20:00:00 21.3 0 Calma 7 Sur 0 1012.4 -0.1 69
2019-10-15 19:00:00 22.7 2 Oeste 9 Noroeste 0 1012.1 -0.8 64
2019-10-15 18:00:00 23.6 4 Oeste 11 Sudoeste 0 1012.4 -0.9 60
2019-10-15 17:00:00 24.4 5 Oeste 13 Oeste 0 1012.5 -1.7 58
2019-10-15 16:00:00 24.3 3 Oeste 12 Sudoeste 0 1012.9 -1.6 58
2019-10-15 15:00:00 24.6 5 Sudoeste 10 Sudoeste 0 1013.3 -1.4 60
2019-10-15 14:00:00 24 5 Sudoeste 13 Oeste 0 1014.2 -0.3 63
2019-10-15 13:00:00 23.8 5 Oeste 13 Oeste 0 1014.5 0.4 60
2019-10-15 12:00:00 23 5 Oeste 9 Oeste 0 1014.7 1.2 60
2019-10-15 11:00:00 22 2 Sudoeste 7 Sudoeste 0 1014.5 1.3 64
2019-10-15 10:00:00 20.6 5 Este 13 Este 0 1014.1 1.1 63
2019-10-15 09:00:00 19.1 8 Este 14 Este 0 1013.5 0.9 65
2019-10-15 08:00:00 19 7 Este 15 Este 0 1013.2 0.5 66
2019-10-15 07:00:00 19.2 9 Este 15 Este 0 1013 0 64
2019-10-15 06:00:00 19.2 8 Este 14 Este 0 1012.6 -0.8 64
2019-10-15 05:00:00 19.3 7 Este 14 Este 0 1012.7 -0.9 67
2019-10-15 04:00:00 19.5 8 Este 15 Este 0 1013 -1.1 67
2019-10-15 03:00:00 19.8 8 Este 14 Este 0 1013.4 -1 71
2019-10-15 02:00:00 19.9 6 Este 11 Este 0 1013.6 -0.4 75
2019-10-15 01:00:00 20 6 Este 11 Este 0 1014.1 0.4 77
2019-10-15 00:00:00 20.1 3 Este 7 Sur 0 1014.4 1.2 80
2019-10-14 23:00:00 20.6 0 Calma 10 Nordeste 0 1014 1.3 81
2019-10-14 22:00:00 21 5 Norte 10 Nordeste 0 1013.7 1.2 80
2019-10-14 21:00:00 21.3 5 Norte 11 Noroeste 0 1013.2 0.6 79
2019-10-14 20:00:00 22.1 4 Noroeste 9 Norte 0 1012.7 0 76
2019-10-14 19:00:00 22.8 4 Noroeste 10 Oeste 0 1012.5 -0.2 69
2019-10-14 18:00:00 24.1 5 Oeste 12 Sudoeste 0 1012.6 -0.4 65
2019-10-14 17:00:00 24.9 6 Sudoeste 13 Sudoeste 0 1012.7 -1 63
2019-10-14 16:00:00 26.2 6 Sudoeste 14 Sudoeste 0 1012.7 -1.4 63
2019-10-14 15:00:00 25.3 8 Sur 16 Sur 0 1013 -1.1 66
2019-10-14 14:00:00 25 6 Sudoeste 12 Sudoeste 0 1013.7 0 67
2019-10-14 13:00:00 24.6 7 Sudoeste 13 Sudoeste 0 1014.1 0.9 71
2019-10-14 12:00:00 23.9 5 Sur 11 Sudoeste 0 1014.1 1.7 75
2019-10-14 11:00:00 22.7 3 Sudoeste 11 Sur 0 1013.7 1.7 77
2019-10-14 10:00:00 21.6 3 Sur 9 Sudeste 0 1013.2 1.5 79
2019-10-14 09:00:00 20.8 0 Calma 8 Este 0 1012.4 1.4 82
2019-10-14 08:00:00 20 5 Este 9 Sudeste 0 1012 1.2 83
2019-10-14 07:00:00 20.1 6 Sudeste 11 Sudeste 0 1011.7 0.8 86
2019-10-14 06:00:00 20 7 Sudeste 12 Sudeste 0 1011 -0.4 83
2019-10-14 05:00:00 20.2 5 Este 10 Este 0 1010.8 -0.6 86
2019-10-14 04:00:00 20.5 5 Sudeste 12 Sudeste 0 1010.9 -0.8 83
2019-10-14 03:00:00 20.6 5 Este 9 Sudeste 0 1011.4 -0.4 79
2019-10-14 02:00:00 21 2 Sudeste 5 Este 0 1011.4 -0.2 86
2019-10-14 01:00:00 20.9 2 Sudeste 6 Sudeste 0 1011.7 0.8 87
2019-10-14 00:00:00 21.3 3 Sudeste 11 Sudeste 0 1011.8 1.3 85
2019-10-13 23:00:00 21.6 5 Sudeste 9 Sudeste 0 1011.6 1.8 82
2019-10-13 22:00:00 21.7 3 Sur 5 Sur 0 1010.9 1.1 81
2019-10-13 21:00:00 21.5 0 Calma 3 Norte 0 1010.5 0.8 79
2019-10-13 20:00:00 22.3 0 Calma 7 Noroeste 0 1009.8 0.5 77
2019-10-13 19:00:00 23.1 3 Noroeste 12 Norte 0 1009.8 0.5 74
2019-10-13 18:00:00 23.8 5 Noroeste 13 Oeste 0 1009.7 0.4 69
2019-10-13 17:00:00 24.2 5 Noroeste 14 Noroeste 0 1009.3 -0.1 66
2019-10-13 16:00:00 24.9 5 Noroeste 14 Noroeste 0 1009.3 -0.4 64
2019-10-13 15:00:00 24.8 8 Noroeste 14 Noroeste 0 1009.3 -0.5 64
2019-10-13 14:00:00 24 5 Noroeste 16 Noroeste 0 1009.4 -0.3 63
2019-10-13 13:00:00 23.6 8 Noroeste 14 Noroeste 0 1009.7 0.6 65
2019-10-13 12:00:00 23 6 Noroeste 13 Noroeste 0 1009.8 1 65
2019-10-13 11:00:00 22.4 5 Noroeste 8 Noroeste 0 1009.7 1.4 68
2019-10-13 10:00:00 20.9 2 Nordeste 14 Este 0 1009.1 0.9 73
2019-10-13 09:00:00 19.3 8 Este 12 Este 0 1008.8 1.1 75
2019-10-13 08:00:00 19.4 6 Este 11 Este 0 1008.3 0.6 76
2019-10-13 07:00:00 19.4 6 Este 10 Este 0 1008.2 0.3 75
2019-10-13 06:00:00 19.7 5 Este 8 Nordeste 0 1007.7 -0.4 75
2019-10-13 05:00:00 19.8 6 Este 10 Este 0 1007.7 -0.9 71
2019-10-13 04:00:00 19.6 8 Este 13 Este 0 1007.9 -1 71
2019-10-13 03:00:00 19.6 8 Este 11 Nordeste 0 1008.1 -0.8 74
2019-10-13 02:00:00 19.9 7 Este 11 Este 0 1008.6 -0.3 71
2019-10-13 01:00:00 20 7 Este 12 Este 0 1008.9 0.1 70
2019-10-13 00:00:00 20.4 6 Este 9 Este 0 1008.9 0.8 69
2019-10-12 23:00:00 21 6 Este 10 Este 0 1008.9 1.1 71
2019-10-12 22:00:00 21.5 3 Nordeste 5 Este 0 1008.8 0.6 74
2019-10-12 21:00:00 21.7 0 Calma 5 Oeste 0 1008.1 0 73
2019-10-12 20:00:00 22.8 2 Noroeste 6 Oeste 0 1007.8 -0.7 68
2019-10-12 19:00:00 23.6 3 Noroeste 9 Oeste 0 1008.2 -0.3 65
2019-10-12 18:00:00 24.2 4 Oeste 12 Noroeste 0 1008.1 -0.8 63
2019-10-12 17:00:00 25 7 Noroeste 14 Noroeste 0 1008.5 -1.1 60
2019-10-12 16:00:00 25.8 5 Oeste 12 Oeste 0 1008.5 -1.9 56
2019-10-12 15:00:00 25.1 6 Noroeste 14 Noroeste 0 1008.9 -1.5 59
2019-10-12 14:00:00 25.3 6 Noroeste 13 Oeste 0 1009.6 -0.6 58
2019-10-12 13:00:00 24 7 Noroeste 12 Noroeste 0 1010.4 0.7 63
2019-10-12 12:00:00 23.7 5 Oeste 9 Sudoeste 0 1010.4 1.1 63
2019-10-12 11:00:00 23.9 3 Sudoeste 8 Sudoeste 0 1010.2 1 60
2019-10-12 10:00:00 22.3 3 Sur 10 Este 0 1009.7 0.6 67
2019-10-12 09:00:00 21.2 7 Este 13 Este 0 1009.3 0.3 62
2019-10-12 08:00:00 21 4 Este 8 Este 0 1009.2 0.1 68
2019-10-12 07:00:00 21 4 Nordeste 9 Norte 0 1009.1 -0.3 68
2019-10-12 06:00:00 21.2 0 Calma 9 Este 0 1009 -0.7 66
2019-10-12 05:00:00 20.8 5 Este 10 Este 0 1009.1 -1.1 69
2019-10-12 04:00:00 20.8 4 Este 6 Este 0 1009.4 -1.2 76
2019-10-12 03:00:00 21.1 4 Este 8 Este 0 1009.7 -1.2 74
2019-10-12 02:00:00 21.1 4 Nordeste 8 Este 0 1010.2 -0.6 74
2019-10-12 01:00:00 20.9 5 Este 9 Este 0 1010.6 0.2 75
2019-10-12 00:00:00 20.7 5 Este 9 Este 0 1010.9 1.2 77
2019-10-11 23:00:00 21.1 4 Este 8 Este 0 1010.8 1.6 77
2019-10-11 22:00:00 21.4 2 Este 3 Este 0 1010.4 1.4 76
2019-10-11 21:00:00 22.1 0 Calma 5 Sur 0 1009.7 1 74
2019-10-11 20:00:00 22.5 3 Sur 10 Sur 0 1009.2 0.5 70
2019-10-11 19:00:00 23.5 6 Sur 15 Sur 0 1009 -0.2 67
2019-10-11 18:00:00 24.1 9 Sur 14 Sur 0 1008.7 -1.1 69
2019-10-11 17:00:00 24.6 7 Sur 14 Sur 0 1008.7 -1.8 67
2019-10-11 16:00:00 24.3 3 Sur 10 Oeste 0 1009.2 -1.7 68
2019-10-11 15:00:00 23.7 2 Noroeste 12 Oeste 0 1009.8 -1.1 71
2019-10-11 14:00:00 23.3 3 Sudoeste 9 Sudoeste 0 1010.5 -0.6 73
2019-10-11 13:00:00 24 2 Oeste 10 Oeste 0 1010.9 0.3 71
2019-10-11 12:00:00 23.8 2 Sur 9 Sudoeste 0 1010.9 1.1 73
2019-10-11 11:00:00 22.9 5 Sudoeste 10 Sudoeste 0 1011.1 1.7 76
2019-10-11 10:00:00 21.5 3 Sudeste 9 Este 0 1010.6 1.5 79
2019-10-11 09:00:00 20.2 6 Este 9 Este 0 1009.8 0.8 78
2019-10-11 08:00:00 20 7 Este 13 Este 0 1009.4 0.3 72
2019-10-11 07:00:00 20.3 3 Nordeste 10 Este 0 1009.1 -0.1 75
2019-10-11 06:00:00 20.8 5 Este 8 Nordeste 0 1009 -0.6 75
2019-10-11 05:00:00 21.1 4 Este 9 Este 0 1009.1 -0.9 78
2019-10-11 04:00:00 21 4 Este 8 Este 0 1009.2 -1.1 80
2019-10-11 03:00:00 21.1 4 Este 6 Este 0 1009.6 -0.7 79
2019-10-11 02:00:00 21.3 3 Nordeste 8 Norte 0 1010 -0.2 85
2019-10-11 01:00:00 21.5 4 Nordeste 8 Norte 0 1010.3 0.6 82
2019-10-11 00:00:00 22 6 Norte 10 Norte 0 1010.3 1.1 78
2019-10-10 23:00:00 21.8 3 Norte 5 Norte 0 1010.2 1.8 77
2019-10-10 22:00:00 21.5 2 Sudeste 10 Sudeste 0 1009.7 1.4 81
2019-10-10 21:00:00 22.1 7 Sudeste 11 Sudeste 0 1009.2 1 81
2019-10-10 20:00:00 22.6 5 Sur 10 Sur 0 1008.4 0.2 77
2019-10-10 19:00:00 23.2 4 Noroeste 16 Noroeste 0 1008.3 -0.3 76
2019-10-10 18:00:00 24.2 10 Noroeste 18 Noroeste 0 1008.2 -0.6 75
2019-10-10 17:00:00 24.4 10 Noroeste 19 Noroeste 0 1008.2 -1.1 72
2019-10-10 16:00:00 24.8 10 Noroeste 19 Noroeste 0 1008.6 -1.2 69
2019-10-10 15:00:00 25 5 Sur 14 Sur 0 1008.8 -1.5 71
2019-10-10 14:00:00 24.9 7 Sur 13 Sur 0 1009.3 -1 74
2019-10-10 13:00:00 24.7 3 Sudoeste 12 Oeste 0 1009.8 0.1 70
2019-10-10 12:00:00 23.8 4 Noroeste 13 Noroeste 0 1010.3 0.9 71
2019-10-10 11:00:00 22.9 4 Noroeste 11 Oeste 0 1010.3 1.3 73
2019-10-10 10:00:00 21.2 5 Nordeste 12 Este 0 1009.7 0.9 75
2019-10-10 09:00:00 20 7 Este 12 Este 0 1009.4 1 76
2019-10-10 08:00:00 19.9 8 Este 14 Sudeste 0 1009 0.6 73
2019-10-10 07:00:00 19.9 8 Este 14 Este 0 1008.8 0.5 76
2019-10-10 06:00:00 20 7 Este 15 Norte 0 1008.4 -0.5 75
2019-10-10 05:00:00 20.8 8 Norte 22 Noroeste 0 1008.4 -1.1 75
2019-10-10 04:00:00 20.7 11 Norte 19 Norte 0 1008.3 -1.4 73
2019-10-10 03:00:00 20.4 8 Nordeste 13 Nordeste 0 1008.9 -1.4 78
2019-10-10 02:00:00 20.4 6 Este 13 Sudeste 0 1009.5 -0.7 78
2019-10-10 01:00:00 20.7 7 Sudeste 13 Sudeste 0 1009.7 0.2 78
2019-10-10 00:00:00 21 4 Este 11 Norte 0 1010.3 1.1 78
2019-10-09 23:00:00 21.5 6 Norte 22 Noroeste 0 1010.2 1.3 78
2019-10-09 22:00:00 21.5 9 Norte 18 Noroeste 0 1009.5 0.7 77
2019-10-09 21:00:00 22 0 Calma 14 Sur 0 1009.2 0.3 75
2019-10-09 20:00:00 22.6 8 Sur 15 Sudeste 0 1008.9 0.1 72
2019-10-09 19:00:00 23.4 6 Sur 14 Noroeste 0 1008.8 0.6 68
2019-10-09 18:00:00 24 9 Noroeste 25 Noroeste 0 1008.9 0.2 67
2019-10-09 17:00:00 24.6 14 Noroeste 24 Norte 0 1008.8 -0.8 66
2019-10-09 16:00:00 25.7 12 Noroeste 19 Noroeste 0 1008.2 -2.2 59
2019-10-09 15:00:00 25.9 9 Sur 22 Sur 0 1008.7 -1.1 61
2019-10-09 14:00:00 25.3 10 Sur 18 Sur 0 1009.6 0.4 62
2019-10-09 13:00:00 23.9 6 Noroeste 19 Noroeste 0 1010.4 1.2 67
2019-10-09 12:00:00 23.8 12 Noroeste 19 Noroeste 0 1009.8 1.1 67
2019-10-09 11:00:00 22.9 5 Oeste 14 Sudeste 0 1009.2 0.7 69
2019-10-09 10:00:00 21.4 7 Sudeste 13 Sudeste 0 1009.2 0.9 77
2019-10-09 09:00:00 19.9 7 Este 12 Nordeste 0 1008.7 0.5 80
2019-10-09 08:00:00 19.9 6 Nordeste 11 Nordeste 0 1008.5 -0.1 79
2019-10-09 07:00:00 20 6 Este 13 Sudeste 0 1008.3 -0.6 79
2019-10-09 06:00:00 20.3 8 Sudeste 15 Sudeste 0 1008.2 -0.9 79
2019-10-09 05:00:00 20.4 7 Este 13 Sudeste 0 1008.6 -0.9 78
2019-10-09 04:00:00 21 4 Nordeste 9 Nordeste 0 1008.9 -1.3 78
2019-10-09 03:00:00 21.1 0 Calma 7 Sudeste 0 1009.1 -1.4 78
2019-10-09 02:00:00 21.4 2 Sudeste 4 Sudeste 0 1009.5 -0.8 82
2019-10-09 01:00:00 21.7 0 Calma 7 Nordeste 0 1010.2 0.2 81
2019-10-09 00:00:00 21.2 3 Norte 6 Nordeste 0 1010.5 1 82
2019-10-08 23:00:00 21.6 0 Calma 6 Sudeste 0 1010.3 1 77
2019-10-08 22:00:00 22.4 2 Sudeste 9 Sur 0 1010 0.7 76
2019-10-08 21:00:00 22.9 3 Sur 8 Sur 0 1009.5 0.2 75
2019-10-08 20:00:00 23.2 0 Calma 9 Noroeste 0 1009.3 0.3 73
2019-10-08 19:00:00 23.4 5 Noroeste 17 Noroeste 0 1009.3 0.1 73
2019-10-08 18:00:00 23.9 9 Noroeste 18 Noroeste 0 1009.3 -0.4 71
2019-10-08 17:00:00 24.8 10 Noroeste 18 Noroeste 0 1009 -0.6 66
2019-10-08 16:00:00 26.1 7 Noroeste 16 Oeste 0 1009.2 -0.7 63
2019-10-08 15:00:00 25.9 4 Oeste 14 Sudoeste 0 1009.7 -0.2 63
2019-10-08 14:00:00 25.7 6 Sur 16 Sur 0 1009.6 -0.5 63
2019-10-08 13:00:00 25.2 5 Sur 12 Sudoeste 0 1009.9 0.3 66
2019-10-08 12:00:00 24.2 5 Sudoeste 9 Sur 0 1009.9 0.6 69
2019-10-08 11:00:00 22.8 4 Noroeste 10 Noroeste 0 1010.1 1.2 77
2019-10-08 10:00:00 21.7 3 Este 8 Este 0 1009.6 0.7 75
2019-10-08 09:00:00 19.9 6 Este 9 Este 0 1009.3 0.4 76
2019-10-08 08:00:00 19.7 7 Este 10 Este 0 1008.9 0.1 79
2019-10-08 07:00:00 19.8 5 Este 9 Este 0 1008.9 -0.1 82
2019-10-08 06:00:00 20.1 5 Nordeste 13 Nordeste 0 1008.9 -0.2 76
2019-10-08 05:00:00 20.3 8 Nordeste 12 Nordeste 0 1008.8 -0.4 79
2019-10-08 04:00:00 19.9 8 Este 9 Este 0 1009 -0.8 79
2019-10-08 03:00:00 20.1 5 Este 9 Este 0 1009.1 -0.8 79
2019-10-08 02:00:00 20.4 5 Este 10 Nordeste 0 1009.2 -0.5 81
2019-10-08 01:00:00 20.7 5 Nordeste 9 Este 0 1009.8 0.3 80
2019-10-08 00:00:00 20.9 6 Este 8 Nordeste 0 1009.9 1 79
2019-10-07 23:00:00 21.1 0 Calma 4 Este 0 1009.7 0.8 82
2019-10-07 22:00:00 21.2 0 Calma 0 Calma 0 1009.5 0.5 81
2019-10-07 21:00:00 21.8 0 Calma 4 Noroeste 0 1008.9 0.3 78
2019-10-07 20:00:00 22.6 2 Noroeste 11 Noroeste 0 1008.9 0.1 76
2019-10-07 19:00:00 23.3 6 Noroeste 19 Noroeste 0 1009 0.1 74
2019-10-07 18:00:00 24.3 10 Noroeste 17 Noroeste 0 1008.6 -0.5 69
2019-10-07 17:00:00 25.6 7 Noroeste 14 Oeste 0 1008.8 -0.9 56
2019-10-07 16:00:00 27.5 5 Sudoeste 14 Sudoeste 0 1008.9 -1.2 53
2019-10-07 15:00:00 27.3 7 Sudoeste 17 Sudoeste 0 1009.1 -1.3 56
2019-10-07 14:00:00 26.3 10 Sur 18 Sur 0 1009.7 -0.3 57
2019-10-07 13:00:00 26.5 6 Sur 13 Sudoeste 0 1010.1 0.7 57
2019-10-07 12:00:00 25.2 4 Noroeste 19 Norte 0 1010.4 1.6 57
2019-10-07 11:00:00 24.5 8 Noroeste 20 Norte 0 1010 1.4 59
2019-10-07 10:00:00 22.5 9 Norte 21 Nordeste 0 1009.4 0.8 65
2019-10-07 09:00:00 20.5 10 Nordeste 18 Nordeste 0 1008.8 0.9 73
2019-10-07 08:00:00 20 6 Sudeste 12 Este 0 1008.6 1.1 81
2019-10-07 07:00:00 20.4 6 Este 21 Nordeste 0 1008.6 0.4 80
2019-10-07 06:00:00 20.7 13 Norte 27 Nordeste 0 1007.9 -1.3 78
2019-10-07 05:00:00 20.2 9 Nordeste 17 Sudeste 0 1007.5 -1.7 77
2019-10-07 04:00:00 20.3 9 Sudeste 15 Sudeste 0 1008.2 -1.4 80
2019-10-07 03:00:00 20.7 4 Este 18 Noroeste 0 1009.2 -1 81
2019-10-07 02:00:00 21.1 9 Norte 19 Norte 0 1009.2 -1.4 81
2019-10-07 01:00:00 21 9 Nordeste 15 Nordeste 0 1009.6 -0.6 82
2019-10-07 00:00:00 21.3 6 Sudeste 13 Sudeste 0 1010.2 0.6 82
2019-10-06 23:00:00 21.8 0 Calma 17 Noroeste 0 1010.6 1.3 82
2019-10-06 22:00:00 22 8 Norte 22 Noroeste 0 1010.2 1 77
2019-10-06 21:00:00 22.1 9 Norte 15 Norte 0 1009.6 -0.2 74
2019-10-06 20:00:00 23 7 Sur 21 Sur 0 1009.3 0.4 72
2019-10-06 19:00:00 24.1 8 Sur 16 Sudoeste 0 1009.2 -0.1 67
2019-10-06 18:00:00 24.7 10 Noroeste 30 Noroeste 0 1009.8 -0.3 67
2019-10-06 17:00:00 25.1 16 Noroeste 26 Norte 0 1008.9 -1.4 65
2019-10-06 16:00:00 26.6 10 Sur 22 Sudeste 0 1009.3 -0.8 66
2019-10-06 15:00:00 26 6 Sudoeste 21 Oeste 0 1010.1 -0.5 68
2019-10-06 14:00:00 25.5 11 Noroeste 21 Noroeste 0 1010.3 0 69
2019-10-06 13:00:00 25.1 3 Sudoeste 16 Sur 0 1010.1 0.1 68
2019-10-06 12:00:00 24.9 9 Sur 21 Sur 0 1010.6 1.5 73
2019-10-06 11:00:00 24.4 10 Sur 21 Sur 0 1010.3 1.5 75
2019-10-06 10:00:00 22.5 4 Sur 9 Este 0 1010 1.1 83
2019-10-06 09:00:00 21.1 6 Sudeste 16 Sur 0 1009.1 0.8 86
2019-10-06 08:00:00 21 9 Sudeste 16 Sudeste 0 1008.8 0.6 86
2019-10-06 07:00:00 21.1 5 Sudeste 13 Sudeste 0 1008.9 0.3 86
2019-10-06 06:00:00 21.1 6 Sudeste 19 Sudeste 0 1008.3 -0.6 88
2019-10-06 05:00:00 21.3 13 Sudeste 21 Sur 0 1008.2 -1.2 89
2019-10-06 04:00:00 21.1 2 Este 15 Este 0 1008.6 -0.9 86
2019-10-06 03:00:00 21.5 4 Sudeste 18 Sudeste 0 1008.9 -0.9 88
2019-10-06 02:00:00 21.7 10 Sudeste 22 Sur 0 1009.4 -0.4 86
2019-10-06 01:00:00 22.1 10 Norte 22 Norte 0 1009.5 0.1 83
2019-10-06 00:00:00 22 9 Sudeste 32 Sudeste 0 1009.8 1.1 84
2019-10-05 23:00:00 22.1 4 Sudeste 28 Norte 0 1009.8 1.4 80
2019-10-05 22:00:00 23.2 7 Norte 40 Noroeste 0 1009.4 0.7 73
2019-10-05 21:00:00 22.5 7 Norte 20 Sur 0 1008.7 0.8 81
2019-10-05 20:00:00 23.3 14 Sur 25 Sur 0 1008.4 0.3 80
2019-10-05 19:00:00 23.8 4 Noroeste 41 Noroeste 0 1008.7 0.6 77
2019-10-05 18:00:00 24.3 22 Noroeste 35 Noroeste 0 1007.9 -1 76
2019-10-05 17:00:00 26.2 9 Sur 26 Sur 0 1008.1 -0.8 68
2019-10-05 16:00:00 26.9 12 Sur 22 Sur 0 1008.1 -1.4 64
2019-10-05 15:00:00 26 3 Norte 27 Noroeste 0 1008.9 -0.8 69
2019-10-05 14:00:00 25.8 12 Noroeste 27 Noroeste 0 1008.9 -0.7 69
2019-10-05 13:00:00 26.3 8 Sur 21 Sur 0 1009.5 1.1 67
2019-10-05 12:00:00 25.2 7 Sur 15 Sur 0 1009.7 1.4 71
2019-10-05 11:00:00 23.5 8 Noroeste 18 Noroeste 0 1009.6 1.4 80
2019-10-05 10:00:00 22.5 6 Norte 17 Sudeste 0 1008.4 0.9 82
2019-10-05 09:00:00 21.3 9 Sudeste 18 Sudeste 0 1008.3 1.1 85
2019-10-05 08:00:00 20.9 9 Sudeste 17 Nordeste 0 1008.2 0.9 85
2019-10-05 07:00:00 21.3 7 Norte 22 Norte 0 1007.5 -0.6 83
2019-10-05 06:00:00 21.1 3 Nordeste 21 Sur 0 1007.2 -0.5 89
2019-10-05 05:00:00 21.2 9 Sudeste 15 Sur 0 1007.3 -1.2 89
2019-10-05 04:00:00 21.4 0 Calma 19 Nordeste 0 1008.1 -0.8 89
2019-10-05 03:00:00 21.1 11 Norte 17 Nordeste 0 1007.7 -2.2 86
2019-10-05 02:00:00 21.6 6 Sudeste 13 Sudeste 0 1008.5 -1.1 87
2019-10-05 01:00:00 21.6 6 Sudeste 10 Sudeste 0 1008.9 -0.7 87
2019-10-05 00:00:00 21.8 4 Noroeste 19 Norte 0 1009.9 0.5 87
2019-10-04 23:00:00 21.7 13 Norte 23 Noroeste 0 1009.6 0 85
2019-10-04 22:00:00 22.1 5 Norte 18 Sudeste 0 1009.6 0.2 84
2019-10-04 21:00:00 22.3 10 Sur 18 Sur 0 1009.4 0.3 82
2019-10-04 20:00:00 23 3 Oeste 18 Norte 0 1009.6 0.6 80
2019-10-04 19:00:00 23.3 11 Noroeste 22 Noroeste 0 1009.4 0.2 77
2019-10-04 18:00:00 24.1 13 Noroeste 20 Noroeste 0 1009.1 -1 73
2019-10-04 17:00:00 25.4 10 Sur 27 Sur 0 1009 -1.2 72
2019-10-04 16:00:00 26.5 9 Sur 23 Noroeste 0 1009.2 -1.6 69
2019-10-04 15:00:00 25.2 14 Noroeste 27 Noroeste 0 1010.1 -1.2 73
2019-10-04 14:00:00 24.9 15 Noroeste 29 Noroeste 0 1010.2 -1.5 72
2019-10-04 13:00:00 25 10 Noroeste 17 Noroeste 0 1010.8 -0.6 73
2019-10-04 12:00:00 24.9 9 Sur 18 Sur 0 1011.3 0.6 76
2019-10-04 11:00:00 23.1 3 Oeste 18 Norte 0 1011.7 1.1 84
2019-10-04 10:00:00 22.2 10 Norte 21 Norte 0 1011.4 0.6 89
2019-10-04 09:00:00 21 12 Nordeste 18 Nordeste 0 1010.7 0.4 86
2019-10-04 08:00:00 21.5 7 Sudeste 14 Sudeste 0 1010.6 0.4 90
2019-10-04 07:00:00 21.4 2 Sudeste 13 Nordeste 0 1010.8 -0.1 90
2019-10-04 06:00:00 21.3 9 Nordeste 16 Norte 0 1010.3 -1.3 90
2019-10-04 05:00:00 21.6 3 Nordeste 9 Sudeste 0 1010.2 -1.4 90
2019-10-04 04:00:00 22.1 5 Sudeste 14 Sudeste 0 1010.9 -0.9 90
2019-10-04 03:00:00 22 5 Este 9 Sudeste 0 1011.6 -0.5 90
2019-10-04 02:00:00 22 2 Nordeste 9 Nordeste 0 1011.6 -0.3 91
2019-10-04 01:00:00 21.8 3 Nordeste 8 Nordeste 0 1011.8 0.2 90
2019-10-04 00:00:00 21.8 0 Calma 8 Este 0 1012.1 1 89
2019-10-03 23:00:00 22.2 3 Sudeste 7 Este 0 1011.9 0.8 88
2019-10-03 22:00:00 22.4 3 Sudeste 6 Sudeste 0 1011.6 0.7 85
2019-10-03 21:00:00 22.8 3 Sudeste 5 Sudeste 0 1011.1 0.5 82
2019-10-03 20:00:00 23.9 0 Calma 6 Oeste 0 1011.1 -0.2 77
2019-10-03 19:00:00 24.8 3 Noroeste 9 Noroeste 0 1010.9 -0.4 74
2019-10-03 18:00:00 25.8 4 Sudoeste 9 Oeste 0 1010.6 -1.2 70
2019-10-03 17:00:00 26.7 3 Sudoeste 10 Oeste 0 1011.3 -1.2 67
2019-10-03 16:00:00 27.2 5 Sudoeste 12 Sudoeste 0 1011.3 -1.5 64
2019-10-03 15:00:00 26.8 4 Noroeste 12 Oeste 0 1011.8 -1.4 66
2019-10-03 14:00:00 26.3 5 Oeste 13 Noroeste 0 1012.5 -0.5 68
2019-10-03 13:00:00 25.6 4 Sudoeste 9 Sudoeste 0 1012.8 0.3 70
2019-10-03 12:00:00 25.2 3 Oeste 9 Oeste 0 1013.2 1.2 72
2019-10-03 11:00:00 24.5 5 Noroeste 9 Noroeste 0 1013 1.7 74
2019-10-03 10:00:00 22.7 0 Calma 10 Este 0 1012.5 1.5 82
2019-10-03 09:00:00 21.1 2 Norte 7 Nordeste 0 1012 1.3 90
2019-10-03 08:00:00 20.7 3 Nordeste 7 Nordeste 0 1011.3 0.6 95
2019-10-03 07:00:00 21.1 0 Calma 5 Nordeste 0 1011 -0.1 96
2019-10-03 06:00:00 21.2 2 Este 6 Este 0 1010.7 -0.5 95
2019-10-03 05:00:00 21 0 Calma 4 Este 0 1010.7 -0.6 96
2019-10-03 04:00:00 21 0 Calma 6 Este 0 1011.1 -0.2 93
2019-10-03 03:00:00 21.4 0 Calma 5 Este 0 1011.2 -0.6 94
2019-10-03 02:00:00 21.5 0 Calma 5 Este 0 1011.3 -0.7 91
2019-10-03 01:00:00 21.9 0 Calma 7 Sur 0 1011.3 0 94
2019-10-03 00:00:00 22.4 3 Sudeste 5 Sudeste 0 1011.8 0.8 94
2019-10-02 23:00:00 23 0 Calma 9 Noroeste 0 1012 1.4 94
2019-10-02 22:00:00 23 0 Calma 8 Norte 0 1011.3 0.7 94
2019-10-02 21:00:00 23.3 3 Noroeste 5 Noroeste 0 1011 0.4 91
2019-10-02 20:00:00 23.9 0 Calma 11 Sur 0 1010.6 0 88
2019-10-02 19:00:00 25 6 Sur 13 Sur 0 1010.6 0 84
2019-10-02 18:00:00 25.9 6 Sur 14 Sur 0 1010.6 -0.3 79
2019-10-02 17:00:00 27.2 6 Sur 12 Sur 0 1010.6 -0.3 73
2019-10-02 16:00:00 27.9 4 Sudoeste 11 Sudoeste 0 1010.6 -0.4 71
2019-10-02 15:00:00 27.5 4 Oeste 13 Noroeste 0 1010.9 0 73
2019-10-02 14:00:00 26.5 3 Noroeste 10 Oeste 0 1010.9 0 71
2019-10-02 13:00:00 25.6 5 Noroeste 12 Noroeste 0 1011 0.4 76
2019-10-02 12:00:00 24.6 2 Noroeste 9 Oeste 0 1010.9 1.1 81
2019-10-02 11:00:00 24.8 4 Noroeste 10 Oeste 0 1010.9 2 80
2019-10-02 10:00:00 23.3 0 Calma 6 Nordeste 0 1010.6 2 84
2019-10-02 09:00:00 21.5 0 Calma 5 Nordeste 0 1009.8 1.6 78
2019-10-02 08:00:00 21.2 2 Este 6 Este 0 1008.9 0.5 73
2019-10-02 07:00:00 20.7 0 Calma 5 Este 0 1008.6 -0.2 78
2019-10-02 06:00:00 20.8 0 Calma 4 Este 0 1008.2 -1 75
2019-10-02 05:00:00 21 0 Calma 4 Este 0 1008.4 -1.5 78
2019-10-02 04:00:00 20.9 2 Este 4 Este 0 1008.8 -1.6 76
2019-10-02 03:00:00 21 0 Calma 8 Norte 0 1009.2 -1.4 78
2019-10-02 02:00:00 21.2 0 Calma 4 Norte 0 1009.9 -0.8 83
2019-10-02 01:00:00 21.7 2 Este 7 Sudeste 0 1010.4 0.2 82
2019-10-02 00:00:00 22.2 3 Sudeste 9 Sudeste 0 1010.6 1.1 88
2019-10-01 23:00:00 22.3 0 Calma 4 Sudeste 0 1010.7 1.3 85
2019-10-01 22:00:00 22.7 0 Calma 0 Calma 0 1010.2 0.7 78
2019-10-01 21:00:00 23.4 0 Calma 3 Noroeste 0 1009.5 0.3 75
2019-10-01 20:00:00 24.2 0 Calma 6 Noroeste 0 1009.4 0.3 73
2019-10-01 19:00:00 25.3 0 Calma 8 Norte 0 1009.5 0.7 73
2019-10-01 18:00:00 26 5 Noroeste 10 Oeste 0 1009.2 0 70
2019-10-01 17:00:00 27.5 4 Oeste 11 Sudoeste 0 1009.1 -0.5 66
2019-10-01 16:00:00 28 4 Sudoeste 12 Sudoeste 0 1008.8 -1.3 66
2019-10-01 15:00:00 27.8 5 Sudoeste 12 Sudoeste 0 1009.2 -1.1 66
2019-10-01 14:00:00 26.9 4 Sudoeste 10 Sudoeste 0 1009.6 -0.9 68
2019-10-01 13:00:00 26.4 3 Sudoeste 9 Sudoeste 0 1010.1 0.5 69
2019-10-01 12:00:00 24.7 3 Noroeste 10 Noroeste 0 1010.3 1.4 78
2019-10-01 11:00:00 23.7 3 Oeste 11 Sur 0 1010.5 2.1 82
2019-10-01 10:00:00 22.8 5 Sudeste 12 Sur 0 1009.6 1.5 89
2019-10-01 09:00:00 21 6 Sudeste 10 Sudeste 0 1008.9 1 85
2019-10-01 08:00:00 20.7 4 Este 8 Este 0 1008.4 0.7 81
2019-10-01 07:00:00 21.1 5 Este 9 Este 0 1008.1 0.7 82
2019-10-01 06:00:00 20.8 3 Sudeste 9 Este 0 1007.9 0.3 89
2019-10-01 05:00:00 21.3 4 Sudeste 11 Sudeste 0 1007.7 -0.7 93
2019-10-01 04:00:00 21.4 8 Sudeste 12 Sudeste 0 1007.4 -1.6 93
2019-10-01 03:00:00 21.4 8 Sudeste 13 Sudeste 0 1007.6 -1.1 91
2019-10-01 02:00:00 21.6 5 Este 8 Norte 0 1008.4 -0.4 92
2019-10-01 01:00:00 22 6 Nordeste 12 Nordeste 0 1009 0.6 92
2019-10-01 00:00:00 22 0 Calma 6 Este 0 1008.7 1.3 91
2019-09-30 23:00:00 22.1 0 Calma 0 Calma 0 1008.8 1.4 89
2019-09-30 22:00:00 22.7 0 Calma 7 Noroeste 0 1008.4 1 89
2019-09-30 21:00:00 23 3 Norte 8 Norte 0 1007.4 0 87
2019-09-30 20:00:00 23.8 2 Noroeste 5 Noroeste 0 1007.4 -0.1 82
2019-09-30 19:00:00 25 0 Calma 7 Norte 0 1007.4 -0.6 78
2019-09-30 18:00:00 25.8 3 Sudoeste 11 Oeste 0 1007.4 -0.5 74
2019-09-30 17:00:00 27.3 4 Sudoeste 10 Sudoeste 0 1007.5 -0.8 71
2019-09-30 16:00:00 27 3 Sudoeste 14 Oeste 0 1008 -0.7 71
2019-09-30 15:00:00 27.3 3 Sudoeste 10 Oeste 0 1007.9 -1 72
2019-09-30 14:00:00 25.9 3 Sudoeste 10 Sudoeste 0 1008.3 -0.3 76
2019-09-30 13:00:00 25.2 4 Noroeste 12 Noroeste 0 1008.7 0.5 79
2019-09-30 12:00:00 24.6 4 Oeste 10 Noroeste 0 1008.9 0.8 81
2019-09-30 11:00:00 23.3 6 Noroeste 12 Noroeste 0 1008.6 1.3 84
2019-09-30 10:00:00 22.4 4 Norte 10 Nordeste 0 1008.2 0.7 89
2019-09-30 09:00:00 20.8 5 Nordeste 9 Nordeste 0 1008.1 1.1 86
2019-09-30 08:00:00 20.3 0 Calma 7 Norte 0 1007.3 0.3 86
2019-09-30 07:00:00 20.6 3 Nordeste 8 Este 0 1007.5 0.2 89
2019-09-30 06:00:00 20.7 5 Este 9 Este 0 1007 -0.7 90
2019-09-30 05:00:00 21.1 6 Nordeste 10 Este 0 1007 -1 91
2019-09-30 04:00:00 21.2 4 Nordeste 9 Nordeste 0 1007.3 -1.4 89
2019-09-30 03:00:00 21.2 2 Nordeste 12 Este 0 1007.7 -0.9 89
2019-09-30 02:00:00 21.8 3 Este 6 Este 0 1008 -1.1 88
2019-09-30 01:00:00 21.8 3 Este 5 Este 0 1008.7 -0.1 87
2019-09-30 00:00:00 21.6 0 Calma 6 Este 0 1008.6 0.3 85
2019-09-29 23:00:00 21.8 0 Calma 5 Nordeste 0 1009.1 0.9 85
2019-09-29 22:00:00 21.9 0 Calma 5 Sudeste 0 1008.8 0.8 85
2019-09-29 21:00:00 22.2 2 Sudeste 7 Sudeste 0 1008.3 -0.2 82
2019-09-29 20:00:00 23.4 3 Sur 10 Sur 0 1008.2 -0.4 78
2019-09-29 19:00:00 24.4 5 Sur 11 Sur 0 1008 -1.1 74
2019-09-29 18:00:00 25.3 5 Sur 10 Sudoeste 0 1008.5 -1.1 69
2019-09-29 17:00:00 26.4 5 Oeste 16 Noroeste 0 1008.6 -1.4 66
2019-09-29 16:00:00 25.9 9 Noroeste 20 Norte 0 1009.1 -1.5 68
2019-09-29 15:00:00 25.7 12 Noroeste 20 Norte 0 1009.6 -1.1 70
2019-09-29 14:00:00 25.7 9 Noroeste 16 Noroeste 0 1010 -0.5 69
2019-09-29 13:00:00 25.1 2 Sudoeste 10 Sudoeste 0 1010.6 0.5 71
2019-09-29 12:00:00 24.4 3 Sudoeste 9 Oeste 0 1010.7 1.5 72
2019-09-29 11:00:00 23.7 3 Sudoeste 7 Sudoeste 0 1010.5 1.5 76
2019-09-29 10:00:00 22.1 0 Calma 10 Este 0 1010.1 1.2 79
2019-09-29 09:00:00 20.8 6 Este 10 Este 0 1009.2 0.5 82
2019-09-29 08:00:00 20.9 7 Este 12 Este 0 1009 0.1 81
2019-09-29 07:00:00 21.1 6 Este 11 Este 0 1008.9 -0.5 81
2019-09-29 06:00:00 21 4 Este 9 Este 0 1008.7 -1.1 82
2019-09-29 05:00:00 20.5 6 Este 10 Este 0 1008.9 -1.4 82
2019-09-29 04:00:00 20.8 5 Este 8 Este 0 1009.4 -1.5 81
2019-09-29 03:00:00 21.4 3 Este 5 Este 0 1009.8 -1.3 82
2019-09-29 02:00:00 21.8 0 Calma 0 Calma 0 1010.3 -0.9 82
2019-09-29 01:00:00 22.6 0 Calma 6 Norte 0 1010.9 -0.2 79
2019-09-29 00:00:00 22.8 2 Noroeste 7 Norte 0 1011.1 0.5 79
2019-09-28 23:00:00 23 4 Noroeste 9 Norte 0 1011.2 1 78
2019-09-28 22:00:00 23.4 0 Calma 6 Noroeste 0 1011.1 0.9 76
2019-09-28 21:00:00 23.8 0 Calma 7 Sudoeste 0 1010.6 0.2 74
2019-09-28 20:00:00 24.3 3 Sur 12 Sur 0 1010.2 -0.4 71
2019-09-28 19:00:00 24.7 6 Sur 12 Sudeste 0 1010.2 -1 69
2019-09-28 18:00:00 25 3 Sudoeste 11 Noroeste 0 1010.4 -0.9 70
2019-09-28 17:00:00 25 6 Noroeste 14 Noroeste 0 1010.6 -1.4 70
2019-09-28 16:00:00 24.9 8 Noroeste 14 Noroeste 0 1011.2 -1.1 70
2019-09-28 15:00:00 25.5 6 Noroeste 14 Noroeste 0 1011.3 -1 67
2019-09-28 14:00:00 25.4 5 Noroeste 13 Noroeste 0 1012 0 67
2019-09-28 13:00:00 25.3 4 Sudoeste 12 Sudoeste 0 1012.3 0.8 67
2019-09-28 12:00:00 24.9 5 Sudoeste 11 Sudoeste 0 1012.3 1.2 70
2019-09-28 11:00:00 23.5 3 Sudoeste 8 Sudoeste 0 1012 1.4 72
2019-09-28 10:00:00 22.2 0 Calma 14 Este 0 1011.5 1.2 75
2019-09-28 09:00:00 20.5 11 Este 14 Este 0 1011.1 1 79
2019-09-28 08:00:00 20 10 Este 13 Este 0 1010.6 0.2 80
2019-09-28 07:00:00 20.2 6 Este 9 Este 0 1010.3 -0.4 80
2019-09-28 06:00:00 20.5 5 Este 8 Este 0 1010.1 -1 78
2019-09-28 05:00:00 20.7 5 Este 11 Este 0 1010.4 -1.1 77
2019-09-28 04:00:00 21 8 Este 14 Nordeste 0 1010.7 -1.2 76
2019-09-28 03:00:00 21.4 8 Este 13 Este 0 1011.1 -1.3 75
2019-09-28 02:00:00 22.5 0 Calma 6 Este 0 1011.5 -0.8 76
2019-09-28 01:00:00 22.3 0 Calma 10 Este 0 1011.9 0.1 74
2019-09-28 00:00:00 22.3 4 Este 8 Este 0 1012.4 1 75
2019-09-27 23:00:00 23.1 0 Calma 8 Noroeste 0 1012.3 1.3 76
2019-09-27 22:00:00 22.9 4 Noroeste 8 Noroeste 0 1011.8 1 75
2019-09-27 21:00:00 23 3 Norte 6 Norte 0 1011.4 0.4 74
2019-09-27 20:00:00 23.8 0 Calma 14 Sur 0 1011 0.1 72
2019-09-27 19:00:00 24.9 7 Sur 14 Sur 0 1010.8 -0.3 68
2019-09-27 18:00:00 25.9 6 Sur 14 Sudoeste 0 1011 -0.6 65
2019-09-27 17:00:00 27.3 6 Sudoeste 15 Oeste 0 1010.9 -1.3 62
2019-09-27 16:00:00 26.3 5 Noroeste 15 Noroeste 0 1011.1 -1.5 66
2019-09-27 15:00:00 26.1 8 Noroeste 14 Oeste 0 1011.6 -1.6 66
2019-09-27 14:00:00 25.7 5 Oeste 12 Sudoeste 0 1012.2 -0.8 67
2019-09-27 13:00:00 25 6 Sudoeste 11 Sudoeste 0 1012.6 0.1 74
2019-09-27 12:00:00 24.9 3 Sudoeste 9 Sur 0 1013.2 1.2 69
2019-09-27 11:00:00 23.8 2 Oeste 8 Norte 0 1013 1.4 74
2019-09-27 10:00:00 22.4 0 Calma 8 Nordeste 0 1012.5 0.8 76
2019-09-27 09:00:00 21 4 Este 11 Este 0 1012 1 76
2019-09-27 08:00:00 21.4 4 Este 8 Este 0 1011.6 0.3 75
2019-09-27 07:00:00 21.7 4 Este 9 Este 0 1011.7 0.1 75
2019-09-27 06:00:00 21.1 6 Este 11 Este 0 1011 -1.1 77
2019-09-27 05:00:00 21.9 3 Este 9 Este 0 1011.3 -1.3 77
2019-09-27 04:00:00 22.2 4 Este 11 Este 0 1011.6 -1 75
2019-09-27 03:00:00 21.6 6 Este 11 Este 0 1012.1 -0.7 79
2019-09-27 02:00:00 21.4 5 Este 10 Este 0 1012.6 0.1 79
2019-09-27 01:00:00 22 3 Este 6 Nordeste 0 1012.6 0.7 79
2019-09-27 00:00:00 22.3 0 Calma 8 Este 0 1012.8 1.5 77
2019-09-26 23:00:00 22.5 3 Este 5 Este 0 1012.5 1.5 77
2019-09-26 22:00:00 22.8 4 Sudeste 7 Sudeste 0 1011.9 1.1 78
2019-09-26 21:00:00 22.9 0 Calma 3 Noroeste 0 1011.3 0.7 76
2019-09-26 20:00:00 23.9 0 Calma 16 Norte 0 1011 0.7 75
2019-09-26 19:00:00 24.8 10 Noroeste 18 Noroeste 0 1010.8 0.3 72
2019-09-26 18:00:00 25.7 9 Noroeste 15 Noroeste 0 1010.6 -0.3 66
2019-09-26 17:00:00 27.4 6 Sur 15 Sur 0 1010.3 -1 64
2019-09-26 16:00:00 27.4 9 Sur 16 Sur 0 1010.5 -1.2 66
2019-09-26 15:00:00 27.6 5 Oeste 17 Noroeste 0 1010.9 -0.5 66
2019-09-26 14:00:00 26.5 9 Noroeste 16 Oeste 0 1011.3 -0.4 69
2019-09-26 13:00:00 25.9 8 Norte 16 Noroeste 0 1011.7 0.2 67
2019-09-26 12:00:00 26.1 5 Oeste 10 Oeste 0 1011.4 0.4 65
2019-09-26 11:00:00 25.3 4 Sur 11 Sudeste 0 1011.7 1.5 69
2019-09-26 10:00:00 23.5 4 Sudeste 12 Sudeste 0 1011.5 2 72
2019-09-26 09:00:00 22 3 Este 23 Norte 0 1011 1.7 71
2019-09-26 08:00:00 22.2 11 Norte 19 Nordeste 0 1010.2 0.8 69
2019-09-26 07:00:00 21.2 8 Nordeste 15 Nordeste 0 1009.5 -0.1 75
2019-09-26 06:00:00 21.4 6 Sudeste 15 Sudeste 0 1009.3 0 78
2019-09-26 05:00:00 21.6 7 Sudeste 11 Sudeste 0 1009.4 -0.5 78
2019-09-26 04:00:00 22.1 5 Norte 26 Noroeste 0 1009.6 -0.4 74
2019-09-26 03:00:00 22 15 Norte 33 Noroeste 0 1009.3 -1.4 78
2019-09-26 02:00:00 21.8 8 Nordeste 16 Sur 0 1009.9 -0.6 82
2019-09-26 01:00:00 22 9 Sudeste 17 Sur 0 1010 0.4 83
2019-09-26 00:00:00 22.5 3 Sudeste 24 Noroeste 0 1010.7 1.2 82
2019-09-25 23:00:00 22.3 9 Noroeste 34 Norte 0 1010.5 1.2 83
2019-09-25 22:00:00 22.4 10 Norte 17 Sur 0 1009.6 0 79
2019-09-25 21:00:00 23.1 6 Sur 17 Sur 0 1009.5 0.4 78
2019-09-25 20:00:00 24.3 5 Sudoeste 15 Oeste 0 1009.3 0 74
2019-09-25 19:00:00 24.3 9 Noroeste 23 Noroeste 0 1009.6 0.3 76
2019-09-25 18:00:00 25.1 15 Noroeste 24 Noroeste 0 1009.1 -1.4 72
2019-09-25 17:00:00 27.1 4 Sur 22 Sur 0 1009.3 -1.7 61
2019-09-25 16:00:00 27.2 12 Sur 21 Sur 0 1009.3 -2.4 61
2019-09-25 15:00:00 26.3 2 Sudoeste 15 Norte 0 1010.5 -1.5 64
2019-09-25 14:00:00 25.4 5 Noroeste 13 Noroeste 0 1011 -1.3 66
2019-09-25 13:00:00 26.2 6 Sudoeste 17 Sur 0 1011.7 -0.3 67
2019-09-25 12:00:00 25.4 10 Sur 19 Sur 0 1012 0.4 69
2019-09-25 11:00:00 23.6 4 Sudoeste 9 Sudoeste 0 1012.3 1 75
2019-09-25 10:00:00 22.3 0 Calma 9 Este 0 1012 0.8 80
2019-09-25 09:00:00 20.7 6 Este 12 Este 0 1011.6 0.3 82
2019-09-25 08:00:00 20.4 8 Este 13 Este 0 1011.3 0 79
2019-09-25 07:00:00 20.2 7 Este 14 Este 0 1011.2 -0.1 79
2019-09-25 06:00:00 20.4 8 Este 12 Este 0 1011.3 -0.6 79
2019-09-25 05:00:00 20.7 6 Este 12 Este 0 1011.3 -1.1 79
2019-09-25 04:00:00 21.2 5 Este 9 Este 0 1011.3 -1.3 80
2019-09-25 03:00:00 21.4 6 Este 11 Este 0 1011.9 -0.8 79
2019-09-25 02:00:00 21.4 4 Nordeste 9 Este 0 1012.4 -0.6 78
2019-09-25 01:00:00 21.4 5 Este 8 Este 0 1012.6 0 77
2019-09-25 00:00:00 22 4 Este 6 Este 0 1012.7 0.4 75
2019-09-24 23:00:00 22.6 2 Nordeste 5 Norte 0 1013 1 74
2019-09-24 22:00:00 22.9 0 Calma 0 Calma 0 1012.6 0.8 73
2019-09-24 21:00:00 23.1 0 Calma 8 Sudoeste 0 1012.3 0.6 72
2019-09-24 20:00:00 24 3 Sur 13 Sur 0 1012 0.1 68
2019-09-24 19:00:00 25.1 7 Sur 15 Sudoeste 0 1011.8 -0.3 64
2019-09-24 18:00:00 26.2 8 Sur 14 Sudoeste 0 1011.7 -1 60
2019-09-24 17:00:00 27.3 6 Sudoeste 13 Sudoeste 0 1011.9 -1.4 59
2019-09-24 16:00:00 27.1 6 Sudoeste 15 Sudoeste 0 1012.1 -1.8 60
2019-09-24 15:00:00 27.2 6 Sur 15 Sudoeste 0 1012.7 -1.4 60
2019-09-24 14:00:00 27.5 8 Sudoeste 16 Sur 0 1013.3 -0.9 59
2019-09-24 13:00:00 26.7 6 Sudoeste 14 Sudoeste 0 1013.9 -0.1 63
2019-09-24 12:00:00 26.1 7 Sudoeste 13 Sur 0 1014.1 0.8 67
2019-09-24 11:00:00 24.8 6 Sur 13 Sur 0 1014.2 1.3 71
2019-09-24 10:00:00 22.6 3 Sudeste 12 Este 0 1014 1.7 75
2019-09-24 09:00:00 21.1 7 Este 12 Este 0 1013.3 1.3 76
2019-09-24 08:00:00 20.8 9 Este 14 Este 0 1012.9 1.2 74
2019-09-24 07:00:00 21.2 7 Este 12 Este 0 1012.3 0.4 78
2019-09-24 06:00:00 21.5 6 Este 9 Nordeste 0 1012 -0.1 81
2019-09-24 05:00:00 21.7 6 Este 11 Este 0 1011.7 -1 78
2019-09-24 04:00:00 21.6 7 Este 10 Este 0 1011.9 -0.9 81
2019-09-24 03:00:00 21.4 6 Este 11 Este 0 1012.1 -1 79
2019-09-24 02:00:00 21.8 6 Este 12 Este 0 1012.7 -0.6 78
2019-09-24 01:00:00 22 6 Nordeste 14 Nordeste 0 1012.8 -0.1 78
2019-09-24 00:00:00 22.3 2 Sudeste 8 Noroeste 0 1013.1 0.8 77
2019-09-23 23:00:00 23.5 4 Noroeste 9 Noroeste 0 1013.3 1.2 78
2019-09-23 22:00:00 23.9 0 Calma 7 Oeste 0 1012.9 0.9 78
2019-09-23 21:00:00 23.8 3 Noroeste 9 Oeste 0 1012.3 0.2 78
2019-09-23 20:00:00 24.1 0 Calma 6 Oeste 0 1012.1 0.1 77
2019-09-23 19:00:00 23.9 0 Calma 11 Noroeste 0 1012 0 79
2019-09-23 18:00:00 25.1 7 Noroeste 15 Oeste 0 1012.1 -0.3 74
2019-09-23 17:00:00 26.2 8 Noroeste 16 Noroeste 0 1012 -0.7 72
2019-09-23 16:00:00 26.6 6 Noroeste 14 Noroeste 0 1012 -1 70
2019-09-23 15:00:00 27.1 6 Sudoeste 13 Oeste 0 1012.4 -0.8 67
2019-09-23 14:00:00 27.4 6 Sudoeste 13 Sudoeste 0 1012.7 0 70
2019-09-23 13:00:00 25.8 4 Sudoeste 10 Sudoeste 0 1013 0.7 75
2019-09-23 12:00:00 25.1 4 Sudoeste 9 Noroeste 0 1013.2 1.1 78
2019-09-23 11:00:00 24 5 Norte 13 Norte 0 1012.7 0.9 85
2019-09-23 10:00:00 23.7 6 Noroeste 12 Noroeste 0 1012.3 1.1 86
2019-09-23 09:00:00 22.8 6 Nordeste 13 Nordeste 0 1012.1 1.3 88
2019-09-23 08:00:00 22.8 3 Nordeste 11 Este 0 1011.8 1.2 89
2019-09-23 07:00:00 22.5 6 Este 13 Este 0 1011.2 0.5 89
2019-09-23 06:00:00 22.8 5 Este 10 Este 0 1010.8 -0.2 89
2019-09-23 05:00:00 23.3 0 Calma 4 Norte 0 1010.6 -0.8 89
2019-09-23 04:00:00 23.5 2 Norte 7 Nordeste 0 1010.7 -1.1 87
2019-09-23 03:00:00 23.6 0 Calma 6 Sudeste 0 1011 -1 87
2019-09-23 02:00:00 23.9 3 Sur 7 Sudoeste 0 1011.4 -0.5 88
2019-09-23 01:00:00 24 3 Sudeste 9 Sudeste 0 1011.8 0.5 84
2019-09-23 00:00:00 24.1 3 Sur 4 Oeste 0 1012 1.3 85
2019-09-22 23:00:00 24.3 0 Calma 9 Oeste 0 1011.9 1.4 85
2019-09-22 22:00:00 24.6 3 Oeste 6 Oeste 0 1011.3 1 84
2019-09-22 21:00:00 25 4 Sudoeste 9 Sudoeste 0 1010.7 0.3 82
2019-09-22 20:00:00 25.5 2 Sudoeste 10 Sudoeste 0 1010.5 0.2 78
2019-09-22 19:00:00 26.1 4 Sudoeste 10 Sur 0 1010.3 0 74
2019-09-22 18:00:00 26.4 5 Sudoeste 12 Sur 0 1010.4 0 73
2019-09-22 17:00:00 27.8 6 Sur 15 Sudoeste 0 1010.3 -0.8 70
2019-09-22 16:00:00 28.8 6 Sur 13 Sudoeste 0 1010.3 -1 68
2019-09-22 15:00:00 28.4 6 Oeste 13 Sudoeste 0 1010.4 -1.1 70
2019-09-22 14:00:00 27.6 5 Sudoeste 12 Sur 0 1011.1 -0.5 70
2019-09-22 13:00:00 26.5 4 Sudoeste 12 Sudoeste 0 1011.3 -0.1 74
2019-09-22 12:00:00 25.7 4 Sudoeste 11 Sudoeste 0 1011.5 0.8 78
2019-09-22 11:00:00 24.4 3 Sudoeste 9 Sudoeste 0 1011.6 0.9 81
2019-09-22 10:00:00 23 0 Calma 6 Nordeste 0 1011.4 1.2 85
2019-09-22 09:00:00 21.6 5 Este 8 Este 0 1010.7 0.9 82
2019-09-22 08:00:00 21.4 5 Este 8 Este 0 1010.7 1 82
2019-09-22 07:00:00 21.4 6 Este 8 Este 0 1010.2 0.5 82
2019-09-22 06:00:00 21.5 5 Este 8 Este 0 1009.8 -0.3 82
2019-09-22 05:00:00 21.6 5 Este 7 Sudeste 0 1009.7 -0.5 86
2019-09-22 04:00:00 21.7 0 Calma 9 Este 0 1009.7 -0.5 84
2019-09-22 03:00:00 22.1 5 Este 8 Este 0 1010.1 -0.5 86
2019-09-22 02:00:00 22.3 5 Sudeste 9 Sudeste 0 1010.2 -0.3 89
2019-09-22 01:00:00 22.5 4 Sudeste 7 Sudeste 0 1010.2 0.1 87
2019-09-22 00:00:00 22.7 0 Calma 4 Noroeste 0 1010.6 1 85
2019-09-21 23:00:00 23.2 0 Calma 9 Noroeste 0 1010.5 1.4 85
2019-09-21 22:00:00 23.3 4 Noroeste 11 Norte 0 1010.1 1.2 84
2019-09-21 21:00:00 23.5 6 Noroeste 13 Norte 0 1009.6 0.6 84
2019-09-21 20:00:00 23.8 6 Noroeste 13 Norte 0 1009.1 0.1 82
2019-09-21 19:00:00 24.4 6 Noroeste 13 Noroeste 0 1008.9 -0.3 78
2019-09-21 18:00:00 24.9 8 Noroeste 14 Noroeste 0 1009 -0.3 75
2019-09-21 17:00:00 26.7 9 Noroeste 17 Oeste 0 1009 -0.9 70
2019-09-21 16:00:00 26.6 6 Noroeste 14 Oeste 0 1009.2 -1 71
2019-09-21 15:00:00 25.7 7 Noroeste 17 Noroeste 0 1009.3 -1.1 73
2019-09-21 14:00:00 25.4 5 Noroeste 15 Noroeste 0 1009.9 -0.2 74
2019-09-21 13:00:00 25 6 Noroeste 14 Noroeste 0 1010.2 0.3 75
2019-09-21 12:00:00 24.4 7 Noroeste 13 Noroeste 0 1010.4 1.2 77
2019-09-21 11:00:00 23.6 5 Noroeste 10 Noroeste 0 1010.1 1.2 77
2019-09-21 10:00:00 22.2 0 Calma 6 Este 0 1009.9 1.3 82
2019-09-21 09:00:00 20.6 6 Este 10 Este 0 1009.2 1.2 80
2019-09-21 08:00:00 20.5 5 Este 10 Este 0 1008.9 0.9 81
2019-09-21 07:00:00 20.5 7 Este 10 Este 0 1008.6 0.4 80
2019-09-21 06:00:00 20.7 6 Este 10 Este 0 1008 -0.5 79
2019-09-21 05:00:00 20.8 8 Este 11 Este 0 1008 -0.7 77
2019-09-21 04:00:00 21 8 Este 11 Este 0 1008.2 -1.1 77
2019-09-21 03:00:00 21.2 6 Este 12 Este 0 1008.5 -0.9 75
2019-09-21 02:00:00 21.4 6 Este 9 Este 0 1008.7 -1 78
2019-09-21 01:00:00 21.8 5 Este 13 Sudeste 0 1009.3 -0.1 76
2019-09-21 00:00:00 22.1 7 Sudeste 12 Sudeste 0 1009.4 0.6 87
2019-09-20 23:00:00 22.3 7 Sudeste 15 Sudeste 0 1009.7 1.1 84
2019-09-20 22:00:00 22.6 10 Sudeste 18 Sudeste 0 1009.4 0.8 85
2019-09-20 21:00:00 23.3 10 Sur 15 Sur 0 1008.8 0.2 82
2019-09-20 20:00:00 24.4 3 Sudoeste 8 Oeste 0 1008.6 -0.3 77
2019-09-20 19:00:00 24.7 3 Oeste 12 Noroeste 0 1008.6 -0.4 76
2019-09-20 18:00:00 24.9 8 Noroeste 15 Noroeste 0 1008.6 -0.8 74
2019-09-20 17:00:00 24.9 7 Noroeste 14 Noroeste 0 1008.9 -1.3 70
2019-09-20 16:00:00 27.9 6 Sudoeste 14 Noroeste 0 1009 -1.6 65
2019-09-20 15:00:00 26.2 8 Noroeste 15 Noroeste 0 1009.4 -1.6 68
2019-09-20 14:00:00 27 5 Oeste 13 Oeste 0 1010.2 -1 68
2019-09-20 13:00:00 25.7 6 Sudoeste 12 Oeste 0 1010.6 0 71
2019-09-20 12:00:00 24.7 3 Oeste 9 Oeste 0 1011 1.1 78
2019-09-20 11:00:00 23.1 2 Sur 6 Sudoeste 0 1011.2 1.7 85
2019-09-20 10:00:00 22.2 2 Sudoeste 6 Sudeste 0 1010.6 1.3 86
2019-09-20 09:00:00 21.5 4 Este 11 Este 0 1009.9 0.9 83
2019-09-20 08:00:00 21 5 Este 9 Este 0 1009.5 0.2 84
2019-09-20 07:00:00 21.1 6 Este 10 Este 0 1009.3 -0.4 81
2019-09-20 06:00:00 21 6 Este 11 Este 0 1009 -0.8 80
2019-09-20 05:00:00 20.7 6 Este 9 Este 0 1009.3 -1.2 81
2019-09-20 04:00:00 21 5 Este 9 Este 0 1009.7 -0.9 80
2019-09-20 03:00:00 21.4 6 Este 9 Este 0 1009.8 -1.1 81
2019-09-20 02:00:00 22.4 0 Calma 5 Sudeste 0 1010.5 -0.5 83
2019-09-20 01:00:00 22.1 0 Calma 5 Sur 0 1010.6 -0.1 83
2019-09-20 00:00:00 22.3 0 Calma 2 Norte 0 1010.9 0.8 82
2019-09-19 23:00:00 22.5 0 Calma 5 Sudoeste 0 1011 1.4 79
2019-09-19 22:00:00 23.4 0 Calma 9 Oeste 0 1010.7 1.2 78
2019-09-19 21:00:00 23.7 4 Oeste 9 Sudoeste 0 1010.1 0.9 77
2019-09-19 20:00:00 23.8 3 Noroeste 11 Noroeste 0 1009.6 0.6 74
2019-09-19 19:00:00 24.6 7 Noroeste 15 Noroeste 0 1009.5 0.5 71
2019-09-19 18:00:00 25.7 6 Oeste 15 Sudoeste 0 1009.2 -0.5 67
2019-09-19 17:00:00 27.1 7 Sur 18 Sudoeste 0 1009 -1.1 64
2019-09-19 16:00:00 27.8 8 Sudoeste 17 Sudoeste 0 1009 -1.5 62
2019-09-19 15:00:00 27.1 9 Oeste 21 Noroeste 0 1009.7 -1 67
2019-09-19 14:00:00 25.6 13 Noroeste 22 Noroeste 0 1010.1 -0.4 71
2019-09-19 13:00:00 25.3 11 Noroeste 21 Norte 0 1010.5 0 70
2019-09-19 12:00:00 25 4 Sudoeste 15 Sur 0 1010.7 0.7 71
2019-09-19 11:00:00 24.3 6 Sur 14 Sur 0 1010.5 1.3 71
2019-09-19 10:00:00 22.5 4 Sudeste 9 Nordeste 0 1010.5 1.4 78
2019-09-19 09:00:00 20.9 7 Este 13 Este 0 1010 1.3 79
2019-09-19 08:00:00 20.7 10 Nordeste 15 Nordeste 0 1009.2 0.5 78
2019-09-19 07:00:00 21 9 Este 13 Este 0 1009.1 0 78
2019-09-19 06:00:00 21.1 6 Sudeste 14 Sudeste 0 1008.7 -1.1 82
2019-09-19 05:00:00 21.5 8 Sudeste 13 Sudeste 0 1008.7 -1.2 80
2019-09-19 04:00:00 22.1 3 Sudeste 7 Noroeste 0 1009.1 -1.3 80
2019-09-19 03:00:00 22 3 Norte 8 Norte 0 1009.8 -0.6 80
2019-09-19 02:00:00 22 4 Nordeste 8 Nordeste 0 1009.9 -0.6 80
2019-09-19 01:00:00 22.4 3 Sur 10 Sur 0 1010.4 0.2 80
2019-09-19 00:00:00 22 0 Calma 6 Noroeste 0 1010.4 1 79